sensor_id;sensor_type;location;lat;lon;timestamp;temperature;humidity
56878;DHT22;42765;44.764;19.676;2022-08-19T00:00:16;26.50;90.80
56878;DHT22;42765;44.764;19.676;2022-08-19T00:02:42;26.50;90.80
56878;DHT22;42765;44.764;19.676;2022-08-19T00:05:09;26.50;91.10
56878;DHT22;42765;44.764;19.676;2022-08-19T00:07:35;26.50;91.20
56878;DHT22;42765;44.764;19.676;2022-08-19T00:10:03;26.50;91.60
56878;DHT22;42765;44.764;19.676;2022-08-19T00:12:29;26.50;91.60
56878;DHT22;42765;44.764;19.676;2022-08-19T00:14:55;26.40;91.50
56878;DHT22;42765;44.764;19.676;2022-08-19T00:17:21;26.40;91.60
56878;DHT22;42765;44.764;19.676;2022-08-19T00:19:46;26.40;95.80
56878;DHT22;42765;44.764;19.676;2022-08-19T00:22:12;26.40;91.90
56878;DHT22;42765;44.764;19.676;2022-08-19T00:27:06;26.30;92.00
56878;DHT22;42765;44.764;19.676;2022-08-19T00:29:32;26.20;92.30
56878;DHT22;42765;44.764;19.676;2022-08-19T00:53:58;25.20;94.60
56878;DHT22;42765;44.764;19.676;2022-08-19T00:56:24;25.40;95.00
56878;DHT22;42765;44.764;19.676;2022-08-19T00:58:52;25.50;95.30
56878;DHT22;42765;44.764;19.676;2022-08-19T01:03:45;25.50;95.50
56878;DHT22;42765;44.764;19.676;2022-08-19T01:06:11;25.50;95.80
56878;DHT22;42765;44.764;19.676;2022-08-19T01:08:37;25.50;95.60
56878;DHT22;42765;44.764;19.676;2022-08-19T01:11:03;25.60;95.70
56878;DHT22;42765;44.764;19.676;2022-08-19T01:13:30;25.60;95.80
56878;DHT22;42765;44.764;19.676;2022-08-19T01:16:01;25.60;95.80
56878;DHT22;42765;44.764;19.676;2022-08-19T01:18:28;25.70;95.90
56878;DHT22;42765;44.764;19.676;2022-08-19T01:45:36;25.50;96.00
56878;DHT22;42765;44.764;19.676;2022-08-19T01:48:04;25.40;97.60
56878;DHT22;42765;44.764;19.676;2022-08-19T01:50:31;25.40;97.80
56878;DHT22;42765;44.764;19.676;2022-08-19T01:52:57;25.40;97.90
56878;DHT22;42765;44.764;19.676;2022-08-19T02:27:04;25.40;98.00
56878;DHT22;42765;44.764;19.676;2022-08-19T02:29:31;24.80;99.90
56878;DHT22;42765;44.764;19.676;2022-08-19T02:31:57;24.90;99.90
56878;DHT22;42765;44.764;19.676;2022-08-19T02:34:23;24.90;99.90
56878;DHT22;42765;44.764;19.676;2022-08-19T02:36:50;25.00;99.90
56878;DHT22;42765;44.764;19.676;2022-08-19T02:51:29;25.00;99.90
56878;DHT22;42765;44.764;19.676;2022-08-19T02:53:55;24.90;99.90
56878;DHT22;42765;44.764;19.676;2022-08-19T02:56:21;24.90;99.90
56878;DHT22;42765;44.764;19.676;2022-08-19T02:58:47;24.90;99.90
56878;DHT22;42765;44.764;19.676;2022-08-19T03:01:23;24.90;99.90
56878;DHT22;42765;44.764;19.676;2022-08-19T03:03:50;24.90;99.90
56878;DHT22;42765;44.764;19.676;2022-08-19T07:35:22;24.90;99.90
56878;DHT22;42765;44.764;19.676;2022-08-19T07:37:48;29.10;96.90
56878;DHT22;42765;44.764;19.676;2022-08-19T07:40:14;29.10;96.60
56878;DHT22;42765;44.764;19.676;2022-08-19T07:42:40;29.20;96.30
56878;DHT22;42765;44.764;19.676;2022-08-19T07:45:06;29.30;96.50
56878;DHT22;42765;44.764;19.676;2022-08-19T07:47:32;29.40;96.30
56878;DHT22;42765;44.764;19.676;2022-08-19T07:49:58;29.60;96.40
56878;DHT22;42765;44.764;19.676;2022-08-19T07:52:23;29.70;95.50
56878;DHT22;42765;44.764;19.676;2022-08-19T08:15:15;29.90;95.20
56878;DHT22;42765;44.764;19.676;2022-08-19T08:25:21;31.40;92.10
56878;DHT22;42765;44.764;19.676;2022-08-19T08:27:47;31.50;92.20
56878;DHT22;42765;44.764;19.676;2022-08-19T08:30:19;31.60;92.50
56878;DHT22;42765;44.764;19.676;2022-08-19T08:32:45;31.80;91.70
56878;DHT22;42765;44.764;19.676;2022-08-19T08:35:12;31.90;91.70
56878;DHT22;42765;44.764;19.676;2022-08-19T08:37:39;32.00;91.20
56878;DHT22;42765;44.764;19.676;2022-08-19T08:40:06;32.20;91.30
56878;DHT22;42765;44.764;19.676;2022-08-19T08:42:35;32.40;90.40
56878;DHT22;42765;44.764;19.676;2022-08-19T08:47:29;32.70;90.40
56878;DHT22;42765;44.764;19.676;2022-08-19T08:49:59;32.70;90.60
56878;DHT22;42765;44.764;19.676;2022-08-19T08:52:33;32.90;89.50
56878;DHT22;42765;44.764;19.676;2022-08-19T08:59:53;33.30;87.80
56878;DHT22;42765;44.764;19.676;2022-08-19T09:02:20;33.50;89.40
56878;DHT22;42765;44.764;19.676;2022-08-19T09:04:45;33.60;87.00
56878;DHT22;42765;44.764;19.676;2022-08-19T09:07:23;33.70;86.80
56878;DHT22;42765;44.764;19.676;2022-08-19T09:09:50;33.90;87.50
56878;DHT22;42765;44.764;19.676;2022-08-19T09:17:12;34.40;84.20
56878;DHT22;42765;44.764;19.676;2022-08-19T09:19:58;34.70;84.10
56878;DHT22;42765;44.764;19.676;2022-08-19T09:22:25;34.80;85.30
56878;DHT22;42765;44.764;19.676;2022-08-19T09:24:52;35.00;93.30
56878;DHT22;42765;44.764;19.676;2022-08-19T09:27:18;35.20;90.50
56878;DHT22;42765;44.764;19.676;2022-08-19T09:29:45;35.30;80.20
56878;DHT22;42765;44.764;19.676;2022-08-19T09:32:14;35.30;80.00
56878;DHT22;42765;44.764;19.676;2022-08-19T09:34:40;35.40;80.20
56878;DHT22;42765;44.764;19.676;2022-08-19T09:37:06;35.60;82.20
56878;DHT22;42765;44.764;19.676;2022-08-19T09:39:32;35.80;81.00
56878;DHT22;42765;44.764;19.676;2022-08-19T09:44:24;36.30;90.80
56878;DHT22;42765;44.764;19.676;2022-08-19T09:46:49;36.40;79.20
56878;DHT22;42765;44.764;19.676;2022-08-19T09:49:16;36.60;77.20
56878;DHT22;42765;44.764;19.676;2022-08-19T09:51:42;36.80;77.30
56878;DHT22;42765;44.764;19.676;2022-08-19T09:54:08;36.90;77.60
56878;DHT22;42765;44.764;19.676;2022-08-19T09:56:34;36.90;76.30
56878;DHT22;42765;44.764;19.676;2022-08-19T09:59:00;37.00;75.30
56878;DHT22;42765;44.764;19.676;2022-08-19T10:01:27;37.00;75.80
56878;DHT22;42765;44.764;19.676;2022-08-19T10:03:54;37.20;75.30
56878;DHT22;42765;44.764;19.676;2022-08-19T10:06:21;37.50;75.50
56878;DHT22;42765;44.764;19.676;2022-08-19T10:08:47;37.80;73.40
56878;DHT22;42765;44.764;19.676;2022-08-19T10:11:13;37.90;74.30
56878;DHT22;42765;44.764;19.676;2022-08-19T10:13:41;38.00;73.80
56878;DHT22;42765;44.764;19.676;2022-08-19T10:16:08;38.00;72.90
56878;DHT22;42765;44.764;19.676;2022-08-19T10:18:35;38.30;71.90
56878;DHT22;42765;44.764;19.676;2022-08-19T10:21:11;38.50;72.20
56878;DHT22;42765;44.764;19.676;2022-08-19T10:23:38;38.60;70.80
56878;DHT22;42765;44.764;19.676;2022-08-19T10:26:05;38.60;70.40
56878;DHT22;42765;44.764;19.676;2022-08-19T10:28:35;38.90;71.10
56878;DHT22;42765;44.764;19.676;2022-08-19T10:31:12;39.20;70.30
56878;DHT22;42765;44.764;19.676;2022-08-19T10:33:39;39.50;70.80
56878;DHT22;42765;44.764;19.676;2022-08-19T10:36:13;39.90;70.20
56878;DHT22;42765;44.764;19.676;2022-08-19T10:38:49;40.10;67.50
56878;DHT22;42765;44.764;19.676;2022-08-19T10:41:21;40.40;67.30
56878;DHT22;42765;44.764;19.676;2022-08-19T10:43:51;40.80;67.60
56878;DHT22;42765;44.764;19.676;2022-08-19T10:46:18;41.00;65.20
56878;DHT22;42765;44.764;19.676;2022-08-19T10:48:44;41.90;65.60
56878;DHT22;42765;44.764;19.676;2022-08-19T10:51:11;42.00;63.60
56878;DHT22;42765;44.764;19.676;2022-08-19T10:53:56;42.20;62.90
56878;DHT22;42765;44.764;19.676;2022-08-19T10:56:23;42.40;75.40
56878;DHT22;42765;44.764;19.676;2022-08-19T10:59:29;42.30;61.00
56878;DHT22;42765;44.764;19.676;2022-08-19T11:01:59;43.10;69.60
56878;DHT22;42765;44.764;19.676;2022-08-19T11:04:25;43.50;60.90
56878;DHT22;42765;44.764;19.676;2022-08-19T11:06:52;43.60;59.90
56878;DHT22;42765;44.764;19.676;2022-08-19T11:09:22;43.80;58.00
56878;DHT22;42765;44.764;19.676;2022-08-19T11:11:52;44.10;59.40
56878;DHT22;42765;44.764;19.676;2022-08-19T11:14:20;44.00;58.40
56878;DHT22;42765;44.764;19.676;2022-08-19T11:16:47;43.60;57.50
56878;DHT22;42765;44.764;19.676;2022-08-19T11:19:14;43.30;58.10
56878;DHT22;42765;44.764;19.676;2022-08-19T11:21:43;43.00;58.10
56878;DHT22;42765;44.764;19.676;2022-08-19T11:24:20;43.30;57.40
56878;DHT22;42765;44.764;19.676;2022-08-19T11:26:48;43.10;57.20
56878;DHT22;42765;44.764;19.676;2022-08-19T11:29:16;43.10;57.40
56878;DHT22;42765;44.764;19.676;2022-08-19T11:31:45;43.30;55.90
56878;DHT22;42765;44.764;19.676;2022-08-19T11:34:15;43.50;56.20
56878;DHT22;42765;44.764;19.676;2022-08-19T11:36:43;43.40;56.00
56878;DHT22;42765;44.764;19.676;2022-08-19T11:39:12;43.40;55.80
56878;DHT22;42765;44.764;19.676;2022-08-19T11:41:38;43.80;56.90
56878;DHT22;42765;44.764;19.676;2022-08-19T11:44:04;43.30;56.30
56878;DHT22;42765;44.764;19.676;2022-08-19T11:46:34;43.00;56.70
56878;DHT22;42765;44.764;19.676;2022-08-19T11:49:01;42.70;57.30
56878;DHT22;42765;44.764;19.676;2022-08-19T11:51:29;43.20;56.90
56878;DHT22;42765;44.764;19.676;2022-08-19T11:53:56;43.70;56.60
56878;DHT22;42765;44.764;19.676;2022-08-19T11:56:24;43.70;56.70
56878;DHT22;42765;44.764;19.676;2022-08-19T11:58:51;43.60;56.80
56878;DHT22;42765;44.764;19.676;2022-08-19T12:01:19;43.70;55.80
56878;DHT22;42765;44.764;19.676;2022-08-19T12:03:47;43.30;55.90
56878;DHT22;42765;44.764;19.676;2022-08-19T12:06:17;42.80;55.90
56878;DHT22;42765;44.764;19.676;2022-08-19T12:08:44;43.20;55.40
56878;DHT22;42765;44.764;19.676;2022-08-19T12:11:14;43.30;55.40
56878;DHT22;42765;44.764;19.676;2022-08-19T12:13:41;43.20;55.10
56878;DHT22;42765;44.764;19.676;2022-08-19T12:16:10;43.10;54.60
56878;DHT22;42765;44.764;19.676;2022-08-19T12:18:38;43.30;53.60
56878;DHT22;42765;44.764;19.676;2022-08-19T12:21:04;43.70;53.80
56878;DHT22;42765;44.764;19.676;2022-08-19T12:23:30;44.10;53.80
56878;DHT22;42765;44.764;19.676;2022-08-19T12:25:56;43.90;55.10
56878;DHT22;42765;44.764;19.676;2022-08-19T12:28:24;43.70;55.50
56878;DHT22;42765;44.764;19.676;2022-08-19T12:30:51;43.70;54.60
56878;DHT22;42765;44.764;19.676;2022-08-19T12:33:18;43.90;55.20
56878;DHT22;42765;44.764;19.676;2022-08-19T12:35:45;43.90;54.60
56878;DHT22;42765;44.764;19.676;2022-08-19T12:38:14;44.20;55.40
56878;DHT22;42765;44.764;19.676;2022-08-19T12:40:41;44.10;55.20
56878;DHT22;42765;44.764;19.676;2022-08-19T12:43:07;44.00;56.20
56878;DHT22;42765;44.764;19.676;2022-08-19T12:45:34;44.50;56.50
56878;DHT22;42765;44.764;19.676;2022-08-19T12:48:00;44.50;55.50
56878;DHT22;42765;44.764;19.676;2022-08-19T12:50:26;44.70;55.60
56878;DHT22;42765;44.764;19.676;2022-08-19T12:52:52;44.50;56.10
56878;DHT22;42765;44.764;19.676;2022-08-19T12:55:18;44.60;56.10
56878;DHT22;42765;44.764;19.676;2022-08-19T12:57:45;44.50;56.30
56878;DHT22;42765;44.764;19.676;2022-08-19T13:00:17;44.60;55.80
56878;DHT22;42765;44.764;19.676;2022-08-19T13:02:44;44.00;55.70
56878;DHT22;42765;44.764;19.676;2022-08-19T13:05:13;44.00;57.00
56878;DHT22;42765;44.764;19.676;2022-08-19T13:07:40;44.00;55.80
56878;DHT22;42765;44.764;19.676;2022-08-19T13:10:08;43.80;56.50
56878;DHT22;42765;44.764;19.676;2022-08-19T13:12:35;44.10;55.30
56878;DHT22;42765;44.764;19.676;2022-08-19T13:19:53;44.40;54.70
56878;DHT22;42765;44.764;19.676;2022-08-19T13:24:45;44.50;53.80
56878;DHT22;42765;44.764;19.676;2022-08-19T13:32:24;44.10;53.70
56878;DHT22;42765;44.764;19.676;2022-08-19T13:35:08;44.30;55.30
56878;DHT22;42765;44.764;19.676;2022-08-19T13:37:34;43.90;55.50
56878;DHT22;42765;44.764;19.676;2022-08-19T13:40:18;42.30;55.60
56878;DHT22;42765;44.764;19.676;2022-08-19T13:42:47;41.70;56.20
56878;DHT22;42765;44.764;19.676;2022-08-19T13:45:15;41.50;55.90
56878;DHT22;42765;44.764;19.676;2022-08-19T13:47:46;41.40;62.80
56878;DHT22;42765;44.764;19.676;2022-08-19T13:50:14;41.00;56.30
56878;DHT22;42765;44.764;19.676;2022-08-19T13:52:42;40.30;56.90
56878;DHT22;42765;44.764;19.676;2022-08-19T13:55:10;40.30;57.50
56878;DHT22;42765;44.764;19.676;2022-08-19T13:57:36;40.40;57.60
56878;DHT22;42765;44.764;19.676;2022-08-19T14:00:09;40.30;58.10
56878;DHT22;42765;44.764;19.676;2022-08-19T14:02:37;40.20;58.50
56878;DHT22;42765;44.764;19.676;2022-08-19T14:05:08;40.50;58.50
56878;DHT22;42765;44.764;19.676;2022-08-19T14:07:34;40.10;59.20
56878;DHT22;42765;44.764;19.676;2022-08-19T14:12:26;38.60;59.30
56878;DHT22;42765;44.764;19.676;2022-08-19T14:17:18;36.00;63.30
56878;DHT22;42765;44.764;19.676;2022-08-19T14:19:44;35.80;64.00
56878;DHT22;42765;44.764;19.676;2022-08-19T14:29:28;34.90;65.80
56878;DHT22;42765;44.764;19.676;2022-08-19T14:32:00;34.70;68.00
56878;DHT22;42765;44.764;19.676;2022-08-19T14:34:25;34.60;68.60
56878;DHT22;42765;44.764;19.676;2022-08-19T14:36:51;34.60;67.90
56878;DHT22;42765;44.764;19.676;2022-08-19T14:39:17;34.60;67.70
56878;DHT22;42765;44.764;19.676;2022-08-19T14:41:43;34.50;67.60
56878;DHT22;42765;44.764;19.676;2022-08-19T14:44:10;34.60;66.90
56878;DHT22;42765;44.764;19.676;2022-08-19T14:51:29;34.50;66.90
56878;DHT22;42765;44.764;19.676;2022-08-19T14:53:55;34.30;66.50
56878;DHT22;42765;44.764;19.676;2022-08-19T14:56:22;34.60;67.50
56878;DHT22;42765;44.764;19.676;2022-08-19T15:03:45;33.80;66.80
56878;DHT22;42765;44.764;19.676;2022-08-19T15:06:11;33.50;67.90
56878;DHT22;42765;44.764;19.676;2022-08-19T15:08:37;33.30;90.40
56878;DHT22;42765;44.764;19.676;2022-08-19T15:11:07;33.10;67.70
56878;DHT22;42765;44.764;19.676;2022-08-19T15:13:34;33.00;68.70
56878;DHT22;42765;44.764;19.676;2022-08-19T15:16:01;33.10;93.50
56878;DHT22;42765;44.764;19.676;2022-08-19T15:18:26;32.90;94.10
56878;DHT22;42765;44.764;19.676;2022-08-19T15:20:52;32.80;95.00
56878;DHT22;42765;44.764;19.676;2022-08-19T15:23:18;32.70;93.00
56878;DHT22;42765;44.764;19.676;2022-08-19T15:25:44;32.40;77.20
56878;DHT22;42765;44.764;19.676;2022-08-19T15:28:10;32.40;72.80
56878;DHT22;42765;44.764;19.676;2022-08-19T15:30:38;32.30;75.60
56878;DHT22;42765;44.764;19.676;2022-08-19T15:33:05;32.20;91.90
56878;DHT22;42765;44.764;19.676;2022-08-19T15:35:30;32.20;90.10
56878;DHT22;42765;44.764;19.676;2022-08-19T15:37:56;32.10;90.80
56878;DHT22;42765;44.764;19.676;2022-08-19T15:40:23;31.80;71.80
56878;DHT22;42765;44.764;19.676;2022-08-19T15:42:49;31.70;74.70
56878;DHT22;42765;44.764;19.676;2022-08-19T16:33:57;26.70;99.90
56878;DHT22;42765;44.764;19.676;2022-08-19T16:36:23;26.50;99.90
56878;DHT22;42765;44.764;19.676;2022-08-19T17:35:02;26.90;99.90
56878;DHT22;42765;44.764;19.676;2022-08-19T18:06:43;24.70;99.90
56878;DHT22;42765;44.764;19.676;2022-08-19T18:11:35;24.60;99.90
56878;DHT22;42765;44.764;19.676;2022-08-19T18:23:55;24.30;99.90
56878;DHT22;42765;44.764;19.676;2022-08-19T18:26:23;24.30;99.90
56878;DHT22;42765;44.764;19.676;2022-08-19T18:28:49;24.30;99.90
56878;DHT22;42765;44.764;19.676;2022-08-19T18:31:16;24.30;99.90
56878;DHT22;42765;44.764;19.676;2022-08-19T18:33:43;24.50;99.90
56878;DHT22;42765;44.764;19.676;2022-08-19T18:36:09;24.60;99.90
56878;DHT22;42765;44.764;19.676;2022-08-19T18:38:35;24.70;99.90
56878;DHT22;42765;44.764;19.676;2022-08-19T18:41:20;24.60;99.90
56878;DHT22;42765;44.764;19.676;2022-08-19T18:44:04;24.50;99.90
56878;DHT22;42765;44.764;19.676;2022-08-19T18:46:49;24.60;99.90
56878;DHT22;42765;44.764;19.676;2022-08-19T18:49:33;24.60;99.90
56878;DHT22;42765;44.764;19.676;2022-08-19T18:51:59;24.70;99.90
56878;DHT22;42765;44.764;19.676;2022-08-19T18:54:28;24.70;99.90
56878;DHT22;42765;44.764;19.676;2022-08-19T18:56:54;24.80;99.90
56878;DHT22;42765;44.764;19.676;2022-08-19T18:59:25;24.70;99.90
56878;DHT22;42765;44.764;19.676;2022-08-19T19:01:52;24.80;99.90
56878;DHT22;42765;44.764;19.676;2022-08-19T19:04:19;24.90;99.90
56878;DHT22;42765;44.764;19.676;2022-08-19T19:06:45;25.00;99.90
56878;DHT22;42765;44.764;19.676;2022-08-19T19:09:13;25.00;99.90
56878;DHT22;42765;44.764;19.676;2022-08-19T19:11:40;25.00;99.90
56878;DHT22;42765;44.764;19.676;2022-08-19T19:14:09;25.00;99.90
56878;DHT22;42765;44.764;19.676;2022-08-19T19:16:36;25.00;99.90
56878;DHT22;42765;44.764;19.676;2022-08-19T19:19:02;25.00;99.90
56878;DHT22;42765;44.764;19.676;2022-08-19T19:21:30;25.00;99.90
56878;DHT22;42765;44.764;19.676;2022-08-19T19:23:56;25.00;99.90
56878;DHT22;42765;44.764;19.676;2022-08-19T19:26:22;24.80;99.90
56878;DHT22;42765;44.764;19.676;2022-08-19T19:28:48;24.70;99.90
56878;DHT22;42765;44.764;19.676;2022-08-19T19:31:22;24.60;99.90
56878;DHT22;42765;44.764;19.676;2022-08-19T19:33:51;24.70;99.90
56878;DHT22;42765;44.764;19.676;2022-08-19T19:36:17;24.80;99.90
56878;DHT22;42765;44.764;19.676;2022-08-19T19:38:43;24.90;99.90
56878;DHT22;42765;44.764;19.676;2022-08-19T19:41:13;25.00;99.90
56878;DHT22;42765;44.764;19.676;2022-08-19T19:43:40;25.20;99.90
56878;DHT22;42765;44.764;19.676;2022-08-19T19:46:06;25.20;99.90
56878;DHT22;42765;44.764;19.676;2022-08-19T19:48:32;25.30;99.90
56878;DHT22;42765;44.764;19.676;2022-08-19T19:51:00;25.50;99.90
56878;DHT22;42765;44.764;19.676;2022-08-19T19:58:20;25.50;99.90
56878;DHT22;42765;44.764;19.676;2022-08-19T20:00:45;25.60;99.90
56878;DHT22;42765;44.764;19.676;2022-08-19T20:03:12;25.70;99.90
56878;DHT22;42765;44.764;19.676;2022-08-19T20:05:40;25.80;99.90
56878;DHT22;42765;44.764;19.676;2022-08-19T20:32:44;25.80;99.90
56878;DHT22;42765;44.764;19.676;2022-08-19T20:35:11;25.40;99.90
56878;DHT22;42765;44.764;19.676;2022-08-19T20:37:37;25.30;99.90
56878;DHT22;42765;44.764;19.676;2022-08-19T20:40:04;25.30;99.90
56878;DHT22;42765;44.764;19.676;2022-08-19T20:42:31;25.20;99.90
56878;DHT22;42765;44.764;19.676;2022-08-19T20:44:57;25.20;99.90
56878;DHT22;42765;44.764;19.676;2022-08-19T20:47:23;25.30;99.90
56878;DHT22;42765;44.764;19.676;2022-08-19T20:49:49;25.50;99.90
56878;DHT22;42765;44.764;19.676;2022-08-19T20:52:15;25.40;99.90
56878;DHT22;42765;44.764;19.676;2022-08-19T20:54:41;25.50;99.90
56878;DHT22;42765;44.764;19.676;2022-08-19T20:57:07;25.30;99.90
56878;DHT22;42765;44.764;19.676;2022-08-19T21:09:19;25.10;99.90
56878;DHT22;42765;44.764;19.676;2022-08-19T21:11:45;25.30;99.90
56878;DHT22;42765;44.764;19.676;2022-08-19T21:14:11;25.50;99.90
56878;DHT22;42765;44.764;19.676;2022-08-19T21:16:37;25.40;99.90
56878;DHT22;42765;44.764;19.676;2022-08-19T21:19:03;25.40;99.90
56878;DHT22;42765;44.764;19.676;2022-08-19T21:21:29;25.40;99.90
56878;DHT22;42765;44.764;19.676;2022-08-19T21:23:55;25.30;99.90
56878;DHT22;42765;44.764;19.676;2022-08-19T21:26:20;25.30;99.90
56878;DHT22;42765;44.764;19.676;2022-08-19T21:28:46;25.30;99.90
56878;DHT22;42765;44.764;19.676;2022-08-19T21:31:12;25.40;99.90
56878;DHT22;42765;44.764;19.676;2022-08-19T21:33:39;25.30;99.90
56878;DHT22;42765;44.764;19.676;2022-08-19T21:36:05;25.30;99.90
56878;DHT22;42765;44.764;19.676;2022-08-19T21:38:31;25.30;99.90
56878;DHT22;42765;44.764;19.676;2022-08-19T21:43:23;25.20;99.90
56878;DHT22;42765;44.764;19.676;2022-08-19T21:45:49;25.20;99.90
56878;DHT22;42765;44.764;19.676;2022-08-19T21:48:17;25.20;99.90
56878;DHT22;42765;44.764;19.676;2022-08-19T21:50:43;25.10;99.90
56878;DHT22;42765;44.764;19.676;2022-08-19T21:53:09;25.20;99.90
56878;DHT22;42765;44.764;19.676;2022-08-19T21:55:35;25.20;99.90
56878;DHT22;42765;44.764;19.676;2022-08-19T21:58:01;25.20;99.90
56878;DHT22;42765;44.764;19.676;2022-08-19T22:00:29;25.20;99.90
56878;DHT22;42765;44.764;19.676;2022-08-19T22:02:55;25.20;99.90
56878;DHT22;42765;44.764;19.676;2022-08-19T22:05:21;25.20;99.90
56878;DHT22;42765;44.764;19.676;2022-08-19T22:07:48;25.20;99.90
56878;DHT22;42765;44.764;19.676;2022-08-19T22:10:14;25.20;99.90
56878;DHT22;42765;44.764;19.676;2022-08-19T22:12:40;25.30;99.90
56878;DHT22;42765;44.764;19.676;2022-08-19T22:15:08;25.20;99.90
56878;DHT22;42765;44.764;19.676;2022-08-19T22:17:34;25.00;99.90
56878;DHT22;42765;44.764;19.676;2022-08-19T23:23:51;25.00;99.90
56878;DHT22;42765;44.764;19.676;2022-08-19T23:26:18;23.40;99.90
56878;DHT22;42765;44.764;19.676;2022-08-19T23:28:44;23.40;99.90
56878;DHT22;42765;44.764;19.676;2022-08-19T23:31:29;23.70;99.90
56878;DHT22;42765;44.764;19.676;2022-08-19T23:33:56;23.50;99.90
56878;DHT22;42765;44.764;19.676;2022-08-19T23:36:22;23.70;99.90
56878;DHT22;42765;44.764;19.676;2022-08-19T23:38:49;23.60;99.90
56878;DHT22;42765;44.764;19.676;2022-08-19T23:41:20;23.60;99.90
56878;DHT22;42765;44.764;19.676;2022-08-19T23:43:47;23.50;99.90
56878;DHT22;42765;44.764;19.676;2022-08-19T23:46:14;23.30;99.90
56878;DHT22;42765;44.764;19.676;2022-08-19T23:48:44;23.50;99.90
56878;DHT22;42765;44.764;19.676;2022-08-19T23:51:12;23.40;99.90
56878;DHT22;42765;44.764;19.676;2022-08-19T23:53:40;23.30;99.90
56878;DHT22;42765;44.764;19.676;2022-08-19T23:56:07;23.20;99.90
56878;DHT22;42765;44.764;19.676;2022-08-19T23:58:34;23.30;99.90
